Time;durP1;ratioP1;P1;durP2;ratioP2;P2;SDS_P1;SDS_P2;PMS_P1;PMS_P2;Temp;Humidity;BMP_temperature;BMP_pressure;BME280_temperature;BME280_humidity;BME280_pressure;Samples;Min_cycle;Max_cycle;Signal;HPM_P1;HPM_P2
2022/08/20 00:00:24;;;;;;;;;;;19.40;99.90;;;;;;5087344;28;19970;-75
2022/08/20 00:02:54;;;;;;;;;;;19.40;99.90;;;;;;5093898;28;19923;-75
2022/08/20 00:05:21;;;;;;;;;;;19.40;99.90;;;;;;5096698;28;19963;-74
2022/08/20 00:07:47;;;;;;;;;;;19.50;99.90;;;;;;5074707;28;19920;-75
2022/08/20 00:10:13;;;;;;;;;;;19.50;99.90;;;;;;5096169;28;20490;-74
2022/08/20 00:12:43;;;;;;;;;;;19.50;99.90;;;;;;5095079;28;19923;-75
2022/08/20 00:15:09;;;;;;;;;;;19.40;99.90;;;;;;5088055;28;20403;-74
2022/08/20 00:17:38;;;;;;;;;;;19.40;99.90;;;;;;5091719;28;19955;-74
2022/08/20 00:20:06;;;;;;;;;;;19.40;99.90;;;;;;5086129;28;19912;-75
2022/08/20 00:22:32;;;;;;;;;;;19.40;99.90;;;;;;5087587;28;19967;-74
2022/08/20 00:24:57;;;;;;;;;;;19.40;99.90;;;;;;5088953;28;19947;-75
2022/08/20 00:27:23;;;;;;;;;;;19.40;99.90;;;;;;5088696;28;19919;-74
2022/08/20 00:29:48;;;;;;;;;;;19.40;99.90;;;;;;5087092;28;19920;-75
2022/08/20 00:32:14;;;;;;;;;;;19.40;99.90;;;;;;5089723;28;19923;-74
2022/08/20 00:34:41;;;;;;;;;;;19.40;99.90;;;;;;5089021;28;19952;-75
2022/08/20 00:37:07;;;;;;;;;;;19.30;99.90;;;;;;5069444;28;19993;-74
2022/08/20 00:39:32;;;;;;;;;;;19.30;99.90;;;;;;5091014;28;20002;-74
2022/08/20 00:41:58;;;;;;;;;;;19.40;99.90;;;;;;5088358;28;20336;-74
2022/08/20 00:44:24;;;;;;;;;;;19.30;99.90;;;;;;5089255;28;19930;-73
2022/08/20 00:46:51;;;;;;;;;;;19.30;99.90;;;;;;5089168;28;20008;-74
2022/08/20 00:49:21;;;;;;;;;;;19.30;99.90;;;;;;5074780;28;19935;-75
2022/08/20 00:51:51;;;;;;;;;;;19.40;99.90;;;;;;5094373;28;19919;-74
2022/08/20 00:54:22;;;;;;;;;;;19.40;99.90;;;;;;5093462;28;20459;-75
2022/08/20 00:56:49;;;;;;;;;;;19.40;99.90;;;;;;5094535;28;19920;-75
2022/08/20 00:59:19;;;;;;;;;;;19.40;99.90;;;;;;5092937;28;20035;-74
2022/08/20 01:01:45;;;;;;;;;;;19.40;99.90;;;;;;5089868;28;19927;-74
2022/08/20 01:04:11;;;;;;;;;;;19.40;99.90;;;;;;5094470;28;19958;-74
2022/08/20 01:06:37;;;;;;;;;;;19.40;99.90;;;;;;5093285;28;19952;-74
2022/08/20 01:09:04;;;;;;;;;;;19.40;99.90;;;;;;5075775;28;19920;-75
2022/08/20 01:11:32;;;;;;;;;;;19.40;99.90;;;;;;5109791;28;19939;-74
2022/08/20 01:14:00;;;;;;;;;;;19.40;99.90;;;;;;5089691;28;19916;-74
2022/08/20 01:16:28;;;;;;;;;;;19.30;99.90;;;;;;5095094;28;19916;-74
2022/08/20 01:18:56;;;;;;;;;;;19.20;99.90;;;;;;5091582;28;20215;-76
2022/08/20 01:21:24;;;;;;;;;;;19.10;99.90;;;;;;5094513;28;20030;-74
2022/08/20 01:23:53;;;;;;;;;;;19.10;99.90;;;;;;5074417;28;19920;-74
2022/08/20 01:26:21;;;;;;;;;;;19.10;99.90;;;;;;5077129;28;20253;-74
2022/08/20 01:28:58;;;;;;;;;;;19.00;99.90;;;;;;5093144;28;19924;-74
2022/08/20 01:31:26;;;;;;;;;;;19.00;99.90;;;;;;5094675;28;20034;-74
2022/08/20 01:33:53;;;;;;;;;;;19.00;99.90;;;;;;5093648;28;20253;-73
2022/08/20 01:36:29;;;;;;;;;;;19.00;99.90;;;;;;5088178;28;19916;-73
2022/08/20 01:38:55;;;;;;;;;;;19.20;99.90;;;;;;5085049;28;20266;-73
2022/08/20 01:41:20;;;;;;;;;;;19.10;99.90;;;;;;5092310;28;19977;-74
2022/08/20 01:43:46;;;;;;;;;;;19.10;99.90;;;;;;5093520;28;20214;-74
2022/08/20 01:46:12;;;;;;;;;;;19.10;99.90;;;;;;5089867;28;19920;-74
2022/08/20 01:48:38;;;;;;;;;;;19.10;99.90;;;;;;5086365;28;19916;-75
2022/08/20 01:51:07;;;;;;;;;;;19.10;99.90;;;;;;5088902;28;20010;-75
2022/08/20 01:53:36;;;;;;;;;;;19.10;99.90;;;;;;5084015;28;20376;-75
2022/08/20 01:56:03;;;;;;;;;;;19.10;99.90;;;;;;5089393;28;19916;-75
2022/08/20 01:58:30;;;;;;;;;;;19.10;99.90;;;;;;5073661;28;19920;-74
2022/08/20 02:00:56;;;;;;;;;;;19.10;99.90;;;;;;5092047;28;19916;-74
2022/08/20 02:03:22;;;;;;;;;;;19.00;99.90;;;;;;5093152;28;20623;-74
2022/08/20 02:05:48;;;;;;;;;;;18.90;99.90;;;;;;5089999;28;20002;-75
2022/08/20 02:08:14;;;;;;;;;;;18.70;99.90;;;;;;5093028;28;20378;-74
2022/08/20 02:10:39;;;;;;;;;;;18.60;99.90;;;;;;5067620;28;19927;-74
2022/08/20 02:13:08;;;;;;;;;;;18.50;99.90;;;;;;5087593;28;19920;-74
2022/08/20 02:15:34;;;;;;;;;;;18.50;99.90;;;;;;5067545;28;19931;-75
2022/08/20 02:18:01;;;;;;;;;;;18.60;99.90;;;;;;5093387;28;21569;-74
2022/08/20 02:20:27;;;;;;;;;;;18.60;99.90;;;;;;5092847;28;19994;-74
2022/08/20 02:22:55;;;;;;;;;;;18.60;99.90;;;;;;5088331;28;19916;-74
2022/08/20 02:25:22;;;;;;;;;;;18.70;99.90;;;;;;5092972;28;20299;-74
2022/08/20 02:27:48;;;;;;;;;;;18.70;99.90;;;;;;5094523;28;19912;-74
2022/08/20 02:30:23;;;;;;;;;;;18.60;99.90;;;;;;5089578;28;20480;-74
2022/08/20 02:32:49;;;;;;;;;;;18.60;99.90;;;;;;5093048;28;19934;-74
2022/08/20 02:35:14;;;;;;;;;;;18.50;99.90;;;;;;5093558;28;19920;-75
2022/08/20 02:37:41;;;;;;;;;;;18.50;99.90;;;;;;5108229;28;19919;-74
2022/08/20 02:40:08;;;;;;;;;;;18.40;99.90;;;;;;5093622;28;19952;-74
2022/08/20 02:42:34;;;;;;;;;;;18.30;99.90;;;;;;5092429;28;20291;-74
2022/08/20 02:45:00;;;;;;;;;;;18.30;99.90;;;;;;5092339;28;19919;-74
2022/08/20 02:47:26;;;;;;;;;;;18.20;99.90;;;;;;5084818;28;19908;-74
2022/08/20 02:49:53;;;;;;;;;;;18.20;99.90;;;;;;5071903;28;20288;-75
2022/08/20 02:52:19;;;;;;;;;;;18.10;99.90;;;;;;5092921;28;19920;-74
2022/08/20 02:54:44;;;;;;;;;;;18.10;99.90;;;;;;5092396;28;20214;-74
2022/08/20 02:57:14;;;;;;;;;;;18.00;99.90;;;;;;5091084;28;19916;-74
2022/08/20 02:59:39;;;;;;;;;;;18.00;99.90;;;;;;5077741;28;19917;-74
2022/08/20 03:02:05;;;;;;;;;;;17.90;99.90;;;;;;5079316;28;20048;-74
2022/08/20 03:04:30;;;;;;;;;;;17.90;99.90;;;;;;5088746;28;19999;-74
2022/08/20 03:06:57;;;;;;;;;;;17.90;99.90;;;;;;5089036;28;20261;-74
2022/08/20 03:09:22;;;;;;;;;;;17.90;99.90;;;;;;5092640;28;19928;-74
2022/08/20 03:11:48;;;;;;;;;;;17.90;99.90;;;;;;5090671;28;19919;-74
2022/08/20 03:14:14;;;;;;;;;;;17.90;99.90;;;;;;5107796;28;19916;-74
2022/08/20 03:16:39;;;;;;;;;;;17.80;99.90;;;;;;5072571;28;19923;-74
2022/08/20 03:19:05;;;;;;;;;;;17.80;99.90;;;;;;5072199;28;19950;-75
2022/08/20 03:21:31;;;;;;;;;;;17.80;99.90;;;;;;5091777;28;20309;-74
2022/08/20 03:23:56;;;;;;;;;;;17.90;99.90;;;;;;5074060;28;19912;-75
2022/08/20 03:26:22;;;;;;;;;;;17.90;99.90;;;;;;5075239;28;19916;-74
2022/08/20 03:28:47;;;;;;;;;;;17.90;99.90;;;;;;5074870;28;19916;-74
2022/08/20 03:31:14;;;;;;;;;;;18.00;99.90;;;;;;5092100;28;20009;-74
2022/08/20 03:33:39;;;;;;;;;;;18.00;99.90;;;;;;5090513;28;19916;-74
2022/08/20 03:36:05;;;;;;;;;;;18.00;99.90;;;;;;5095080;28;19920;-75
2022/08/20 03:38:31;;;;;;;;;;;18.00;99.90;;;;;;5097131;28;19919;-74
2022/08/20 03:40:56;;;;;;;;;;;17.90;99.90;;;;;;5111647;28;20204;-75
2022/08/20 03:43:23;;;;;;;;;;;17.90;99.90;;;;;;5096749;28;19945;-74
2022/08/20 03:45:49;;;;;;;;;;;17.70;99.90;;;;;;5077551;28;19955;-74
2022/08/20 03:48:17;;;;;;;;;;;17.70;99.90;;;;;;5094872;28;20018;-74
2022/08/20 03:50:43;;;;;;;;;;;17.60;99.90;;;;;;5093905;28;20314;-74
2022/08/20 03:53:10;;;;;;;;;;;17.50;99.90;;;;;;5094876;28;19923;-74
2022/08/20 03:55:37;;;;;;;;;;;17.30;99.90;;;;;;5096498;28;19911;-74
2022/08/20 03:58:05;;;;;;;;;;;17.30;99.90;;;;;;5096458;28;19974;-73
2022/08/20 04:00:32;;;;;;;;;;;17.20;99.90;;;;;;5079315;28;20210;-74
2022/08/20 04:02:59;;;;;;;;;;;17.10;99.90;;;;;;5078191;28;20199;-73
2022/08/20 04:05:26;;;;;;;;;;;17.00;99.90;;;;;;5093553;28;19931;-73
2022/08/20 04:07:51;;;;;;;;;;;17.00;99.90;;;;;;5093931;28;19919;-73
2022/08/20 04:10:17;;;;;;;;;;;17.10;99.90;;;;;;5096668;28;19912;-74
2022/08/20 04:12:42;;;;;;;;;;;17.00;99.90;;;;;;5096151;28;19934;-74
2022/08/20 04:15:14;;;;;;;;;;;17.00;99.90;;;;;;5095913;28;20321;-74
2022/08/20 04:17:41;;;;;;;;;;;17.10;99.90;;;;;;5095743;28;20188;-74
2022/08/20 04:20:07;;;;;;;;;;;17.10;99.90;;;;;;5095783;28;19912;-74
2022/08/20 04:22:33;;;;;;;;;;;17.10;99.90;;;;;;5093795;28;20018;-75
2022/08/20 04:24:58;;;;;;;;;;;17.10;99.90;;;;;;5096389;28;20007;-74
2022/08/20 04:27:24;;;;;;;;;;;17.10;99.90;;;;;;5094937;28;20195;-74
2022/08/20 04:29:50;;;;;;;;;;;17.10;99.90;;;;;;5094101;28;20253;-74
2022/08/20 04:32:15;;;;;;;;;;;17.00;99.90;;;;;;5095725;28;19915;-74
2022/08/20 04:34:42;;;;;;;;;;;17.00;99.90;;;;;;5095796;28;20342;-74
2022/08/20 04:37:07;;;;;;;;;;;16.90;99.90;;;;;;5076594;28;19916;-74
2022/08/20 04:39:34;;;;;;;;;;;16.80;99.90;;;;;;5095729;28;19908;-74
2022/08/20 04:41:59;;;;;;;;;;;16.70;99.90;;;;;;5077460;28;19965;-74
2022/08/20 04:44:25;;;;;;;;;;;16.60;99.90;;;;;;5094286;28;20261;-74
2022/08/20 04:46:51;;;;;;;;;;;16.50;99.90;;;;;;5091705;28;20302;-74
2022/08/20 04:49:16;;;;;;;;;;;16.50;99.90;;;;;;5094775;28;19920;-75
2022/08/20 04:51:42;;;;;;;;;;;16.50;99.90;;;;;;5071819;28;20214;-75
2022/08/20 04:54:07;;;;;;;;;;;16.50;99.90;;;;;;5094501;28;20306;-74
2022/08/20 04:56:38;;;;;;;;;;;16.40;99.90;;;;;;5081271;28;19916;-74
2022/08/20 04:59:06;;;;;;;;;;;16.40;99.90;;;;;;5079921;28;19919;-74
2022/08/20 05:01:32;;;;;;;;;;;16.40;99.90;;;;;;5083250;28;19919;-74
2022/08/20 05:03:57;;;;;;;;;;;16.40;99.90;;;;;;5090023;28;20011;-74
2022/08/20 05:06:25;;;;;;;;;;;16.40;99.90;;;;;;5070877;28;20377;-74
2022/08/20 05:08:51;;;;;;;;;;;16.40;99.90;;;;;;5089577;28;19916;-74
2022/08/20 05:11:20;;;;;;;;;;;16.40;99.90;;;;;;5092093;28;19961;-74
2022/08/20 05:13:46;;;;;;;;;;;16.40;99.90;;;;;;5091676;28;20051;-74
2022/08/20 05:16:11;;;;;;;;;;;16.30;99.90;;;;;;5088009;28;20003;-74
2022/08/20 05:18:37;;;;;;;;;;;16.20;99.90;;;;;;5074038;28;19917;-74
2022/08/20 05:21:04;;;;;;;;;;;16.30;99.90;;;;;;5089747;28;19912;-74
2022/08/20 05:23:31;;;;;;;;;;;16.20;99.90;;;;;;5089880;28;20420;-74
2022/08/20 05:25:57;;;;;;;;;;;16.20;99.90;;;;;;5069327;28;19923;-74
2022/08/20 05:28:23;;;;;;;;;;;16.20;99.90;;;;;;5085226;28;19921;-74
2022/08/20 05:30:49;;;;;;;;;;;16.20;99.90;;;;;;5059316;28;19912;-74
2022/08/20 05:33:17;;;;;;;;;;;16.20;99.90;;;;;;5079248;28;19923;-75
2022/08/20 05:35:43;;;;;;;;;;;16.30;99.90;;;;;;5088363;28;20003;-75
2022/08/20 05:38:10;;;;;;;;;;;16.30;99.90;;;;;;5072971;28;20010;-75
2022/08/20 05:40:36;;;;;;;;;;;16.40;99.90;;;;;;5072553;28;19913;-74
2022/08/20 05:43:03;;;;;;;;;;;16.40;99.90;;;;;;5073535;28;20011;-75
2022/08/20 05:45:30;;;;;;;;;;;16.30;99.90;;;;;;5076208;28;19943;-75
2022/08/20 05:47:57;;;;;;;;;;;16.40;99.90;;;;;;5088335;28;19916;-74
2022/08/20 05:50:22;;;;;;;;;;;16.40;99.90;;;;;;5068067;28;19962;-75
2022/08/20 05:52:48;;;;;;;;;;;16.40;99.90;;;;;;5085263;28;19916;-74
2022/08/20 05:55:13;;;;;;;;;;;16.40;99.90;;;;;;5088192;28;19963;-74
2022/08/20 05:57:39;;;;;;;;;;;16.50;99.90;;;;;;5083538;28;19916;-75
2022/08/20 06:00:10;;;;;;;;;;;16.50;99.90;;;;;;5068735;28;19916;-74
2022/08/20 06:05:20;;;;;;;;;;;16.60;99.90;;;;;;5087616;28;19919;-74
2022/08/20 06:07:46;;;;;;;;;;;16.70;99.90;;;;;;5084886;28;19920;-74
2022/08/20 06:10:11;;;;;;;;;;;16.90;99.90;;;;;;5089649;28;19959;-74
2022/08/20 06:12:37;;;;;;;;;;;17.10;99.90;;;;;;5085990;28;20223;-75
2022/08/20 06:15:03;;;;;;;;;;;17.20;99.90;;;;;;5068986;28;19957;-74
2022/08/20 06:17:32;;;;;;;;;;;17.40;99.90;;;;;;5085200;28;19916;-74
2022/08/20 06:20:00;;;;;;;;;;;17.50;99.90;;;;;;5086585;28;19920;-74
2022/08/20 06:22:26;;;;;;;;;;;17.70;99.90;;;;;;5085493;28;19920;-75
2022/08/20 06:24:51;;;;;;;;;;;17.80;99.90;;;;;;5068015;28;19915;-75
2022/08/20 06:27:17;;;;;;;;;;;17.90;99.90;;;;;;5087336;28;20337;-75
2022/08/20 06:29:43;;;;;;;;;;;18.00;99.90;;;;;;5067394;28;20233;-74
2022/08/20 06:32:09;;;;;;;;;;;18.10;99.90;;;;;;5103938;28;19920;-74
2022/08/20 06:34:35;;;;;;;;;;;18.20;99.90;;;;;;5087608;28;19923;-74
2022/08/20 06:37:01;;;;;;;;;;;18.30;99.90;;;;;;5053186;28;20001;-74
2022/08/20 06:39:28;;;;;;;;;;;18.40;99.90;;;;;;5089339;28;19982;-74
2022/08/20 06:41:57;;;;;;;;;;;18.50;99.90;;;;;;5086055;28;19971;-75
2022/08/20 06:44:23;;;;;;;;;;;18.60;99.90;;;;;;5087155;28;19970;-75
2022/08/20 06:46:48;;;;;;;;;;;18.70;99.90;;;;;;5084668;28;20307;-74
2022/08/20 06:49:14;;;;;;;;;;;18.80;99.90;;;;;;5087450;28;19990;-74
2022/08/20 06:51:39;;;;;;;;;;;18.90;99.90;;;;;;5086122;28;19920;-75
2022/08/20 06:54:05;;;;;;;;;;;18.90;99.90;;;;;;5069626;28;19916;-74
2022/08/20 06:56:32;;;;;;;;;;;19.00;99.90;;;;;;5086650;28;19919;-75
2022/08/20 06:58:57;;;;;;;;;;;19.10;99.90;;;;;;5067701;28;19916;-75
2022/08/20 07:01:23;;;;;;;;;;;19.10;99.90;;;;;;5084951;28;19916;-76
2022/08/20 07:03:49;;;;;;;;;;;19.20;99.90;;;;;;5084846;28;19947;-75
2022/08/20 07:06:15;;;;;;;;;;;19.20;99.90;;;;;;5085750;28;19970;-75
2022/08/20 07:08:41;;;;;;;;;;;19.30;99.90;;;;;;5086738;28;19958;-75
2022/08/20 07:11:07;;;;;;;;;;;19.30;99.90;;;;;;5071289;28;19920;-76
2022/08/20 07:13:35;;;;;;;;;;;19.40;99.90;;;;;;5073260;28;19916;-75
2022/08/20 07:16:01;;;;;;;;;;;19.50;99.90;;;;;;5087774;28;19927;-76
2022/08/20 07:18:27;;;;;;;;;;;19.50;99.90;;;;;;5088423;28;19938;-76
2022/08/20 07:20:53;;;;;;;;;;;19.60;99.90;;;;;;5090946;28;20307;-75
2022/08/20 07:23:19;;;;;;;;;;;19.90;99.90;;;;;;5090784;28;20319;-75
2022/08/20 07:25:45;;;;;;;;;;;20.20;99.90;;;;;;5091270;28;19916;-77
2022/08/20 07:28:15;;;;;;;;;;;20.40;99.90;;;;;;5089592;28;20348;-75
2022/08/20 07:33:27;;;;;;;;;;;21.10;99.90;;;;;;5090182;28;20321;-75
2022/08/20 07:35:53;;;;;;;;;;;21.50;99.90;;;;;;5092075;28;19920;-76
2022/08/20 07:38:23;;;;;;;;;;;21.80;99.90;;;;;;5088817;28;19912;-76
2022/08/20 07:40:52;;;;;;;;;;;22.10;99.90;;;;;;5090841;28;19972;-75
2022/08/20 07:43:18;;;;;;;;;;;22.30;98.90;;;;;;5089292;28;19916;-75
2022/08/20 07:45:44;;;;;;;;;;;22.50;99.50;;;;;;5088599;28;20227;-75
2022/08/20 07:48:11;;;;;;;;;;;22.40;98.80;;;;;;5089495;28;19916;-75
2022/08/20 07:50:37;;;;;;;;;;;22.40;98.90;;;;;;5065661;28;19916;-75
2022/08/20 07:53:03;;;;;;;;;;;22.50;99.40;;;;;;5082643;28;19912;-75
2022/08/20 07:55:29;;;;;;;;;;;22.60;97.90;;;;;;5087343;28;19923;-74
2022/08/20 07:57:56;;;;;;;;;;;22.90;97.90;;;;;;5090223;28;19916;-75
2022/08/20 08:00:22;;;;;;;;;;;23.10;97.90;;;;;;5087167;28;19927;-75
2022/08/20 08:02:48;;;;;;;;;;;23.30;97.20;;;;;;5076247;28;19916;-75
2022/08/20 08:05:14;;;;;;;;;;;23.30;96.80;;;;;;5111468;28;19913;-76
2022/08/20 08:07:41;;;;;;;;;;;23.40;95.70;;;;;;5075644;28;19916;-76
2022/08/20 08:10:07;;;;;;;;;;;23.50;96.60;;;;;;5077001;28;19966;-75
2022/08/20 08:12:35;;;;;;;;;;;23.70;97.30;;;;;;5096109;28;19912;-75
2022/08/20 08:15:02;;;;;;;;;;;23.70;96.70;;;;;;5094255;28;19916;-76
2022/08/20 08:17:30;;;;;;;;;;;23.70;94.70;;;;;;5085700;28;19916;-75
2022/08/20 08:19:56;;;;;;;;;;;24.00;95.20;;;;;;5092198;28;19916;-75
2022/08/20 08:22:24;;;;;;;;;;;24.10;93.90;;;;;;5107057;27;21775;-75
2022/08/20 08:24:50;;;;;;;;;;;23.90;94.40;;;;;;5093531;28;19920;-75
2022/08/20 08:27:17;;;;;;;;;;;23.90;93.70;;;;;;5110246;28;20018;-75
2022/08/20 08:29:43;;;;;;;;;;;24.10;96.00;;;;;;5094950;28;19916;-75
2022/08/20 08:32:09;;;;;;;;;;;24.40;95.80;;;;;;5095593;28;19912;-76
2022/08/20 08:34:35;;;;;;;;;;;24.70;94.90;;;;;;5093782;28;19920;-76
2022/08/20 08:37:01;;;;;;;;;;;24.80;94.90;;;;;;5074468;28;20261;-76
2022/08/20 08:39:31;;;;;;;;;;;24.80;93.30;;;;;;5074668;28;20204;-75
2022/08/20 08:41:57;;;;;;;;;;;24.70;93.10;;;;;;5091628;28;19965;-76
2022/08/20 08:44:32;;;;;;;;;;;24.90;95.80;;;;;;5076345;28;19915;-75
2022/08/20 08:47:06;;;;;;;;;;;25.10;96.00;;;;;;5093550;28;20299;-76
2022/08/20 08:49:33;;;;;;;;;;;25.30;96.80;;;;;;5075748;28;20311;-76
2022/08/20 08:52:04;;;;;;;;;;;25.60;95.90;;;;;;5095549;28;19912;-76
2022/08/20 08:54:30;;;;;;;;;;;26.00;95.50;;;;;;5080481;28;19985;-75
2022/08/20 08:56:57;;;;;;;;;;;26.10;94.00;;;;;;5077178;28;19912;-73
2022/08/20 08:59:23;;;;;;;;;;;25.90;92.20;;;;;;5092033;28;19920;-73
2022/08/20 09:01:51;;;;;;;;;;;25.80;93.00;;;;;;5095573;28;19912;-75
2022/08/20 09:04:17;;;;;;;;;;;25.80;91.70;;;;;;5076841;28;19973;-75
2022/08/20 09:06:43;;;;;;;;;;;26.10;92.80;;;;;;5087735;28;19928;-77
2022/08/20 09:09:35;;;;;;;;;;;26.20;93.80;;;;;;5082384;28;19931;-74
2022/08/20 09:12:03;;;;;;;;;;;26.10;92.20;;;;;;5070792;28;19912;-76
2022/08/20 09:14:29;;;;;;;;;;;25.90;92.00;;;;;;5075749;28;20256;-76
2022/08/20 09:16:55;;;;;;;;;;;26.00;93.00;;;;;;5095786;28;20024;-77
2022/08/20 09:19:20;;;;;;;;;;;26.10;93.50;;;;;;5094025;28;20502;-75
2022/08/20 09:21:46;;;;;;;;;;;26.20;94.80;;;;;;5093740;28;19912;-78
2022/08/20 09:24:12;;;;;;;;;;;26.30;93.70;;;;;;5094005;28;20307;-75
2022/08/20 09:26:37;;;;;;;;;;;26.50;93.00;;;;;;5094339;28;19912;-76
2022/08/20 09:29:03;;;;;;;;;;;26.30;89.60;;;;;;5109375;27;20303;-78
2022/08/20 09:31:28;;;;;;;;;;;25.90;90.90;;;;;;5072955;28;19912;-76
2022/08/20 09:33:54;;;;;;;;;;;25.70;92.70;;;;;;5076187;28;19923;-74
2022/08/20 09:36:20;;;;;;;;;;;25.70;91.30;;;;;;5093537;28;19916;-75
2022/08/20 09:38:45;;;;;;;;;;;25.60;90.40;;;;;;5091022;28;19913;-77
2022/08/20 09:41:11;;;;;;;;;;;25.70;91.90;;;;;;5093849;28;19912;-76
2022/08/20 09:43:37;;;;;;;;;;;25.70;91.20;;;;;;5090507;28;19916;-74
2022/08/20 09:46:02;;;;;;;;;;;25.60;92.50;;;;;;5090623;28;20285;-76
2022/08/20 09:48:28;;;;;;;;;;;26.00;93.60;;;;;;5076604;28;19912;-78
2022/08/20 09:50:53;;;;;;;;;;;26.20;93.50;;;;;;5076771;28;20310;-76
2022/08/20 09:53:19;;;;;;;;;;;26.50;93.90;;;;;;5094672;28;19939;-75
2022/08/20 09:55:47;;;;;;;;;;;26.80;93.70;;;;;;5084387;28;19924;-77
2022/08/20 09:58:31;;;;;;;;;;;26.90;92.20;;;;;;5072077;28;19908;-76
2022/08/20 10:00:58;;;;;;;;;;;27.00;93.50;;;;;;5094202;28;19939;-75
2022/08/20 10:03:24;;;;;;;;;;;26.80;92.70;;;;;;5093459;28;20341;-77
2022/08/20 10:05:50;;;;;;;;;;;26.70;91.40;;;;;;5092994;28;20011;-76
2022/08/20 10:08:15;;;;;;;;;;;26.30;91.30;;;;;;5088434;28;19924;-77
2022/08/20 10:10:41;;;;;;;;;;;26.20;92.70;;;;;;5073419;28;19931;-75
2022/08/20 10:13:07;;;;;;;;;;;26.20;92.00;;;;;;5088888;28;19916;-74
2022/08/20 10:15:32;;;;;;;;;;;26.40;92.60;;;;;;5085520;28;20209;-76
2022/08/20 10:18:02;;;;;;;;;;;26.70;92.50;;;;;;5069892;28;19916;-76
2022/08/20 10:20:28;;;;;;;;;;;26.80;92.60;;;;;;5088046;28;20623;-78
2022/08/20 10:22:53;;;;;;;;;;;26.90;92.70;;;;;;5068284;28;20015;-81
2022/08/20 10:25:19;;;;;;;;;;;27.40;94.00;;;;;;5069044;28;20011;-77
2022/08/20 10:27:45;;;;;;;;;;;27.60;93.60;;;;;;5088129;28;20335;-75
2022/08/20 10:30:10;;;;;;;;;;;27.70;92.20;;;;;;5053191;28;19927;-75
2022/08/20 10:32:36;;;;;;;;;;;27.30;92.10;;;;;;5086107;28;19934;-74
2022/08/20 10:35:02;;;;;;;;;;;27.20;91.50;;;;;;5068511;28;19924;-77
2022/08/20 10:37:28;;;;;;;;;;;26.90;92.70;;;;;;5085782;28;19998;-76
2022/08/20 10:39:53;;;;;;;;;;;26.50;92.20;;;;;;5085449;28;20012;-75
2022/08/20 10:42:19;;;;;;;;;;;25.70;91.40;;;;;;5084755;28;19956;-78
2022/08/20 10:44:44;;;;;;;;;;;25.50;92.50;;;;;;5068670;28;19920;-75
2022/08/20 10:47:30;;;;;;;;;;;25.40;92.20;;;;;;5085720;28;19919;-75
2022/08/20 10:49:56;;;;;;;;;;;25.20;92.60;;;;;;5066771;28;19924;-76
2022/08/20 10:52:22;;;;;;;;;;;25.00;94.80;;;;;;5066891;28;20311;-76
2022/08/20 10:54:48;;;;;;;;;;;25.00;94.30;;;;;;5086612;28;19966;-77
2022/08/20 10:57:18;;;;;;;;;;;25.20;92.80;;;;;;5085760;28;19955;-76
2022/08/20 10:59:45;;;;;;;;;;;25.50;92.30;;;;;;5100183;28;19923;-76
2022/08/20 11:02:10;;;;;;;;;;;25.80;93.00;;;;;;5084364;28;19916;-75
2022/08/20 11:04:36;;;;;;;;;;;26.20;93.00;;;;;;5064806;28;20314;-76
2022/08/20 11:07:20;;;;;;;;;;;26.60;93.00;;;;;;5085325;28;19985;-77
2022/08/20 11:09:47;;;;;;;;;;;26.90;91.90;;;;;;5067516;28;19920;-75
2022/08/20 11:12:13;;;;;;;;;;;26.90;90.80;;;;;;5066657;28;19920;-77
2022/08/20 11:14:38;;;;;;;;;;;26.60;90.90;;;;;;5086082;28;20251;-75
2022/08/20 11:17:04;;;;;;;;;;;26.00;91.50;;;;;;5065984;28;20331;-75
2022/08/20 11:19:30;;;;;;;;;;;25.40;92.00;;;;;;5084698;28;20026;-76
2022/08/20 11:21:55;;;;;;;;;;;25.20;91.40;;;;;;5068332;28;19920;-76
2022/08/20 11:24:22;;;;;;;;;;;25.30;93.10;;;;;;5089819;28;19916;-75
2022/08/20 11:26:49;;;;;;;;;;;25.30;92.70;;;;;;5071097;28;20295;-76
2022/08/20 11:29:14;;;;;;;;;;;25.20;91.90;;;;;;5086383;28;19919;-77
2022/08/20 11:31:40;;;;;;;;;;;25.20;90.60;;;;;;5083608;28;20336;-77
2022/08/20 11:34:05;;;;;;;;;;;25.30;91.40;;;;;;5068199;28;19963;-75
2022/08/20 11:36:31;;;;;;;;;;;25.20;93.80;;;;;;5066029;28;19916;-74
2022/08/20 11:38:57;;;;;;;;;;;25.20;93.40;;;;;;5084751;28;19924;-74
2022/08/20 11:41:22;;;;;;;;;;;25.50;92.30;;;;;;5066122;28;19912;-74
2022/08/20 11:43:48;;;;;;;;;;;25.60;91.70;;;;;;5083485;28;20047;-75
2022/08/20 11:46:13;;;;;;;;;;;25.70;93.80;;;;;;5084373;28;20369;-74
2022/08/20 11:48:39;;;;;;;;;;;26.00;93.80;;;;;;5085548;28;19924;-73
2022/08/20 11:51:04;;;;;;;;;;;26.20;92.10;;;;;;5084306;28;19920;-75
2022/08/20 11:53:30;;;;;;;;;;;26.50;92.90;;;;;;5084231;28;19916;-74
2022/08/20 11:55:56;;;;;;;;;;;26.90;93.60;;;;;;5086796;28;19986;-77
2022/08/20 11:58:21;;;;;;;;;;;26.80;92.70;;;;;;5088398;28;20952;-72
2022/08/20 12:00:47;;;;;;;;;;;26.90;94.40;;;;;;5088200;28;20007;-78
2022/08/20 12:03:13;;;;;;;;;;;27.20;93.20;;;;;;5088025;28;20331;-75
2022/08/20 12:05:40;;;;;;;;;;;27.20;93.70;;;;;;5089474;28;19971;-75
2022/08/20 12:08:05;;;;;;;;;;;27.30;93.50;;;;;;5086381;28;19916;-76
2022/08/20 12:10:31;;;;;;;;;;;27.60;92.90;;;;;;5087745;28;19916;-75
2022/08/20 12:12:57;;;;;;;;;;;27.60;91.60;;;;;;5088679;28;20316;-74
2022/08/20 12:15:22;;;;;;;;;;;27.60;92.70;;;;;;5088875;28;19927;-75
2022/08/20 12:17:48;;;;;;;;;;;27.60;93.50;;;;;;5068976;28;19919;-76
2022/08/20 12:20:14;;;;;;;;;;;27.90;92.30;;;;;;5068610;28;19951;-75
2022/08/20 12:22:39;;;;;;;;;;;28.00;91.70;;;;;;5088279;28;19931;-75
2022/08/20 12:25:06;;;;;;;;;;;28.00;92.60;;;;;;5088635;28;20223;-75
2022/08/20 12:27:32;;;;;;;;;;;28.10;92.50;;;;;;5088134;28;20011;-74
2022/08/20 12:29:59;;;;;;;;;;;27.90;91.90;;;;;;5088478;28;19927;-76
2022/08/20 12:32:26;;;;;;;;;;;27.50;91.20;;;;;;5086178;28;19961;-76
2022/08/20 12:34:51;;;;;;;;;;;27.10;90.80;;;;;;5085115;28;19920;-75
2022/08/20 12:37:19;;;;;;;;;;;27.00;93.30;;;;;;5086319;28;19923;-75
2022/08/20 12:39:47;;;;;;;;;;;26.80;92.80;;;;;;5064030;28;20214;-75
2022/08/20 12:42:13;;;;;;;;;;;26.70;94.20;;;;;;5089210;28;19999;-75
2022/08/20 12:44:39;;;;;;;;;;;26.60;95.30;;;;;;5086652;28;20227;-76
2022/08/20 12:47:04;;;;;;;;;;;26.60;93.40;;;;;;5087526;28;19923;-75
2022/08/20 12:49:30;;;;;;;;;;;26.70;94.30;;;;;;5088395;28;19923;-76
2022/08/20 12:51:56;;;;;;;;;;;26.60;93.30;;;;;;5070718;28;19931;-75
2022/08/20 12:54:22;;;;;;;;;;;26.50;94.10;;;;;;5086660;28;19914;-75
2022/08/20 12:56:48;;;;;;;;;;;26.70;94.20;;;;;;5072008;28;19970;-75
2022/08/20 12:59:13;;;;;;;;;;;26.90;94.10;;;;;;5086594;28;19921;-75
2022/08/20 13:01:39;;;;;;;;;;;27.00;91.80;;;;;;5069916;28;19928;-74
2022/08/20 13:04:04;;;;;;;;;;;27.10;93.00;;;;;;5086321;28;19916;-75
2022/08/20 13:06:30;;;;;;;;;;;26.90;92.20;;;;;;5088113;28;19920;-76
2022/08/20 13:08:55;;;;;;;;;;;26.70;94.00;;;;;;5090680;28;19924;-76
2022/08/20 13:11:21;;;;;;;;;;;26.80;94.00;;;;;;5086501;28;19919;-74
2022/08/20 13:13:47;;;;;;;;;;;27.00;93.50;;;;;;5092398;28;19912;-75
2022/08/20 13:16:13;;;;;;;;;;;27.20;94.80;;;;;;5085524;28;20222;-75
2022/08/20 13:18:38;;;;;;;;;;;27.30;92.90;;;;;;5088653;28;19920;-76
2022/08/20 13:21:04;;;;;;;;;;;27.20;93.20;;;;;;5069314;28;19920;-76
2022/08/20 13:23:29;;;;;;;;;;;27.20;94.00;;;;;;5086604;28;20299;-76
2022/08/20 13:25:55;;;;;;;;;;;27.20;93.10;;;;;;5068500;28;19981;-75
2022/08/20 13:28:21;;;;;;;;;;;26.90;93.60;;;;;;5086059;28;19925;-74
2022/08/20 13:30:46;;;;;;;;;;;26.60;93.70;;;;;;5089380;28;19927;-73
2022/08/20 13:33:12;;;;;;;;;;;26.50;93.60;;;;;;5087939;28;20267;-73
2022/08/20 13:35:37;;;;;;;;;;;26.60;94.20;;;;;;5071400;28;19912;-75
2022/08/20 13:38:03;;;;;;;;;;;26.60;94.40;;;;;;5087800;28;19916;-73
2022/08/20 13:40:28;;;;;;;;;;;26.80;93.50;;;;;;5086145;28;19951;-74
2022/08/20 13:42:54;;;;;;;;;;;26.70;92.40;;;;;;5086617;28;20315;-73
2022/08/20 13:45:19;;;;;;;;;;;26.80;93.30;;;;;;5085952;28;20082;-74
2022/08/20 13:47:45;;;;;;;;;;;26.60;93.00;;;;;;5086131;28;19952;-73
2022/08/20 13:50:11;;;;;;;;;;;26.30;93.80;;;;;;5084651;28;19917;-73
2022/08/20 13:52:37;;;;;;;;;;;26.00;92.60;;;;;;5087814;28;19970;-73
2022/08/20 13:55:04;;;;;;;;;;;25.90;92.80;;;;;;5088184;28;20003;-75
2022/08/20 13:57:29;;;;;;;;;;;26.10;92.60;;;;;;5086370;28;19916;-77
2022/08/20 13:59:55;;;;;;;;;;;26.30;94.40;;;;;;5086974;28;20347;-74
2022/08/20 14:02:21;;;;;;;;;;;26.50;94.50;;;;;;5085697;28;19961;-74
2022/08/20 14:04:47;;;;;;;;;;;26.70;94.90;;;;;;5085248;28;19920;-77
2022/08/20 14:07:31;;;;;;;;;;;26.80;94.90;;;;;;5085986;28;19968;-74
2022/08/20 14:09:58;;;;;;;;;;;26.90;95.30;;;;;;5086976;28;19936;-73
2022/08/20 14:12:24;;;;;;;;;;;27.00;95.50;;;;;;5086690;28;20009;-75
2022/08/20 14:14:51;;;;;;;;;;;27.00;94.70;;;;;;5089597;28;19947;-75
2022/08/20 14:17:18;;;;;;;;;;;27.10;96.20;;;;;;5091378;28;19920;-74